sensor_id;sensor_type;location;lat;lon;timestamp;pressure;altitude;pressure_sealevel;temperature;humidity
51067;BME280;37112;45.892;-123.962;2023-03-20T00:01:10;100280.48;;;11.57;73.59
51067;BME280;37112;45.892;-123.962;2023-03-20T00:03:24;100278.73;;;11.54;73.82
51067;BME280;37112;45.892;-123.962;2023-03-20T00:05:38;100275.30;;;11.55;74.09
51067;BME280;37112;45.892;-123.962;2023-03-20T00:07:52;100275.34;;;11.56;74.31
51067;BME280;37112;45.892;-123.962;2023-03-20T00:10:07;100273.71;;;11.59;74.52
51067;BME280;37112;45.892;-123.962;2023-03-20T00:12:23;100271.27;;;11.61;74.54
51067;BME280;37112;45.892;-123.962;2023-03-20T00:14:37;100270.13;;;11.64;74.81
51067;BME280;37112;45.892;-123.962;2023-03-20T00:16:51;100265.77;;;11.65;74.68
51067;BME280;37112;45.892;-123.962;2023-03-20T00:19:05;100263.41;;;11.63;74.44
51067;BME280;37112;45.892;-123.962;2023-03-20T00:21:20;100258.71;;;11.60;74.41
51067;BME280;37112;45.892;-123.962;2023-03-20T00:23:33;100254.52;;;11.54;74.34
51067;BME280;37112;45.892;-123.962;2023-03-20T00:25:50;100249.05;;;11.49;74.48
51067;BME280;37112;45.892;-123.962;2023-03-20T00:28:07;100248.04;;;11.46;74.72
51067;BME280;37112;45.892;-123.962;2023-03-20T00:30:35;100240.25;;;11.43;74.96
51067;BME280;37112;45.892;-123.962;2023-03-20T00:32:48;100241.34;;;11.41;75.12
51067;BME280;37112;45.892;-123.962;2023-03-20T00:35:02;100236.33;;;11.39;75.17
51067;BME280;37112;45.892;-123.962;2023-03-20T00:37:28;100230.93;;;11.33;75.12
51067;BME280;37112;45.892;-123.962;2023-03-20T00:39:42;100229.15;;;11.29;75.23
51067;BME280;37112;45.892;-123.962;2023-03-20T00:41:57;100225.60;;;11.24;75.39
51067;BME280;37112;45.892;-123.962;2023-03-20T00:44:21;100220.88;;;11.21;75.60
51067;BME280;37112;45.892;-123.962;2023-03-20T00:46:39;100219.40;;;11.17;75.62
51067;BME280;37112;45.892;-123.962;2023-03-20T00:48:52;100215.73;;;11.12;75.78
51067;BME280;37112;45.892;-123.962;2023-03-20T00:51:05;100214.38;;;11.08;76.08
51067;BME280;37112;45.892;-123.962;2023-03-20T00:53:18;100210.67;;;11.06;76.28
51067;BME280;37112;45.892;-123.962;2023-03-20T00:55:31;100207.85;;;11.03;76.51
51067;BME280;37112;45.892;-123.962;2023-03-20T00:57:49;100206.40;;;11.01;76.65
51067;BME280;37112;45.892;-123.962;2023-03-20T01:00:12;100209.09;;;11.01;76.93
51067;BME280;37112;45.892;-123.962;2023-03-20T01:02:32;100206.82;;;11.01;77.07
51067;BME280;37112;45.892;-123.962;2023-03-20T01:04:46;100205.83;;;10.98;77.08
51067;BME280;37112;45.892;-123.962;2023-03-20T01:06:59;100210.09;;;10.95;77.22
51067;BME280;37112;45.892;-123.962;2023-03-20T01:09:13;100204.81;;;10.94;77.44
51067;BME280;37112;45.892;-123.962;2023-03-20T01:11:26;100206.21;;;10.95;77.57
51067;BME280;37112;45.892;-123.962;2023-03-20T01:13:41;100204.20;;;10.96;77.76
51067;BME280;37112;45.892;-123.962;2023-03-20T01:15:55;100193.57;;;10.95;77.79
51067;BME280;37112;45.892;-123.962;2023-03-20T01:18:12;100190.40;;;10.95;77.94
51067;BME280;37112;45.892;-123.962;2023-03-20T01:20:28;100188.66;;;10.94;78.04
51067;BME280;37112;45.892;-123.962;2023-03-20T01:22:43;100185.15;;;10.92;78.10
51067;BME280;37112;45.892;-123.962;2023-03-20T01:24:56;100183.89;;;10.90;78.23
51067;BME280;37112;45.892;-123.962;2023-03-20T01:27:12;100182.66;;;10.89;78.49
51067;BME280;37112;45.892;-123.962;2023-03-20T01:29:26;100183.97;;;10.91;78.70
51067;BME280;37112;45.892;-123.962;2023-03-20T01:31:40;100183.16;;;10.92;78.94
51067;BME280;37112;45.892;-123.962;2023-03-20T01:33:53;100184.23;;;10.94;79.23
51067;BME280;37112;45.892;-123.962;2023-03-20T01:36:10;100185.65;;;10.97;79.33
51067;BME280;37112;45.892;-123.962;2023-03-20T01:38:25;100182.84;;;10.98;79.48
51067;BME280;37112;45.892;-123.962;2023-03-20T01:40:46;100179.52;;;11.00;79.51
51067;BME280;37112;45.892;-123.962;2023-03-20T01:43:04;100181.66;;;11.02;79.80
51067;BME280;37112;45.892;-123.962;2023-03-20T01:45:23;100182.05;;;11.04;80.09
51067;BME280;37112;45.892;-123.962;2023-03-20T01:47:40;100178.69;;;11.06;80.24
51067;BME280;37112;45.892;-123.962;2023-03-20T01:50:26;100182.77;;;11.08;80.32
51067;BME280;37112;45.892;-123.962;2023-03-20T01:52:43;100182.64;;;11.10;80.47
51067;BME280;37112;45.892;-123.962;2023-03-20T01:54:57;100181.25;;;11.11;80.57
51067;BME280;37112;45.892;-123.962;2023-03-20T01:57:14;100181.36;;;11.13;80.65
51067;BME280;37112;45.892;-123.962;2023-03-20T01:59:31;100181.83;;;11.14;80.62
51067;BME280;37112;45.892;-123.962;2023-03-20T02:01:48;100177.49;;;11.14;80.66
51067;BME280;37112;45.892;-123.962;2023-03-20T02:04:03;100181.70;;;11.15;80.80
51067;BME280;37112;45.892;-123.962;2023-03-20T02:06:41;100179.70;;;11.16;80.86
51067;BME280;37112;45.892;-123.962;2023-03-20T02:09:03;100177.23;;;11.15;80.83
51067;BME280;37112;45.892;-123.962;2023-03-20T02:11:22;100174.20;;;11.15;80.91
51067;BME280;37112;45.892;-123.962;2023-03-20T02:13:36;100172.82;;;11.15;80.82
51067;BME280;37112;45.892;-123.962;2023-03-20T02:16:05;100171.87;;;11.16;80.88
51067;BME280;37112;45.892;-123.962;2023-03-20T02:18:38;100168.93;;;11.17;81.01
51067;BME280;37112;45.892;-123.962;2023-03-20T02:26:42;100167.83;;;11.13;80.77
51067;BME280;37112;45.892;-123.962;2023-03-20T02:29:29;100168.39;;;11.10;80.74
51067;BME280;37112;45.892;-123.962;2023-03-20T02:32:19;100169.73;;;11.07;80.74
51067;BME280;37112;45.892;-123.962;2023-03-20T02:35:15;100167.73;;;11.06;80.93
51067;BME280;37112;45.892;-123.962;2023-03-20T02:37:58;100166.16;;;11.03;80.89
51067;BME280;37112;45.892;-123.962;2023-03-20T02:40:26;100163.84;;;11.01;81.08
51067;BME280;37112;45.892;-123.962;2023-03-20T02:42:47;100164.04;;;11.00;81.15
51067;BME280;37112;45.892;-123.962;2023-03-20T02:45:06;100166.41;;;11.00;81.20
51067;BME280;37112;45.892;-123.962;2023-03-20T02:47:29;100165.20;;;10.99;81.30
51067;BME280;37112;45.892;-123.962;2023-03-20T02:49:56;100165.38;;;10.97;81.29
51067;BME280;37112;45.892;-123.962;2023-03-20T02:52:18;100165.36;;;10.95;81.12
51067;BME280;37112;45.892;-123.962;2023-03-20T02:54:36;100163.86;;;10.94;81.34
51067;BME280;37112;45.892;-123.962;2023-03-20T02:57:00;100164.75;;;10.94;81.40
51067;BME280;37112;45.892;-123.962;2023-03-20T02:59:25;100163.95;;;10.92;81.40
51067;BME280;37112;45.892;-123.962;2023-03-20T03:01:44;100159.58;;;10.92;81.51
51067;BME280;37112;45.892;-123.962;2023-03-20T03:04:03;100160.19;;;10.91;81.53
51067;BME280;37112;45.892;-123.962;2023-03-20T03:06:29;100164.01;;;10.92;81.79
51067;BME280;37112;45.892;-123.962;2023-03-20T03:08:46;100166.11;;;10.92;81.83
51067;BME280;37112;45.892;-123.962;2023-03-20T03:11:04;100161.58;;;10.93;82.05
51067;BME280;37112;45.892;-123.962;2023-03-20T03:13:20;100162.05;;;10.94;82.20
51067;BME280;37112;45.892;-123.962;2023-03-20T03:15:40;100164.31;;;10.95;82.12
51067;BME280;37112;45.892;-123.962;2023-03-20T03:17:55;100164.77;;;10.93;81.90
51067;BME280;37112;45.892;-123.962;2023-03-20T03:20:17;100164.63;;;10.91;81.85
51067;BME280;37112;45.892;-123.962;2023-03-20T03:22:32;100162.14;;;10.88;81.80
51067;BME280;37112;45.892;-123.962;2023-03-20T03:24:48;100159.82;;;10.86;81.61
51067;BME280;37112;45.892;-123.962;2023-03-20T03:27:03;100156.72;;;10.82;81.55
51067;BME280;37112;45.892;-123.962;2023-03-20T03:29:20;100160.45;;;10.80;81.65
51067;BME280;37112;45.892;-123.962;2023-03-20T03:31:34;100158.98;;;10.78;81.74
51067;BME280;37112;45.892;-123.962;2023-03-20T03:33:51;100160.08;;;10.76;81.77
51067;BME280;37112;45.892;-123.962;2023-03-20T03:36:10;100159.52;;;10.74;81.92
51067;BME280;37112;45.892;-123.962;2023-03-20T03:38:33;100161.84;;;10.71;81.83
51067;BME280;37112;45.892;-123.962;2023-03-20T03:40:56;100165.80;;;10.68;82.06
51067;BME280;37112;45.892;-123.962;2023-03-20T03:43:17;100166.32;;;10.66;82.25
51067;BME280;37112;45.892;-123.962;2023-03-20T03:45:37;100164.33;;;10.67;82.47
51067;BME280;37112;45.892;-123.962;2023-03-20T03:47:57;100163.88;;;10.66;82.38
51067;BME280;37112;45.892;-123.962;2023-03-20T03:50:15;100162.64;;;10.66;82.53
51067;BME280;37112;45.892;-123.962;2023-03-20T03:52:33;100164.86;;;10.67;82.74
51067;BME280;37112;45.892;-123.962;2023-03-20T03:54:53;100161.80;;;10.67;82.73
51067;BME280;37112;45.892;-123.962;2023-03-20T03:57:15;100164.16;;;10.64;82.51
51067;BME280;37112;45.892;-123.962;2023-03-20T03:59:34;100162.89;;;10.63;82.66
51067;BME280;37112;45.892;-123.962;2023-03-20T04:01:49;100164.18;;;10.62;82.85
51067;BME280;37112;45.892;-123.962;2023-03-20T04:04:06;100164.35;;;10.62;83.12
51067;BME280;37112;45.892;-123.962;2023-03-20T04:06:21;100163.31;;;10.62;82.97
51067;BME280;37112;45.892;-123.962;2023-03-20T04:08:35;100161.27;;;10.60;82.90
51067;BME280;37112;45.892;-123.962;2023-03-20T04:10:48;100159.19;;;10.59;83.07
51067;BME280;37112;45.892;-123.962;2023-03-20T04:13:02;100156.68;;;10.60;83.16
51067;BME280;37112;45.892;-123.962;2023-03-20T04:15:17;100159.40;;;10.62;83.30
51067;BME280;37112;45.892;-123.962;2023-03-20T04:17:31;100160.30;;;10.61;83.22
51067;BME280;37112;45.892;-123.962;2023-03-20T04:19:45;100158.20;;;10.61;83.21
51067;BME280;37112;45.892;-123.962;2023-03-20T04:22:00;100158.27;;;10.60;83.11
51067;BME280;37112;45.892;-123.962;2023-03-20T04:24:14;100156.85;;;10.57;83.03
51067;BME280;37112;45.892;-123.962;2023-03-20T04:26:29;100152.02;;;10.56;82.92
51067;BME280;37112;45.892;-123.962;2023-03-20T04:28:42;100152.33;;;10.52;82.93
51067;BME280;37112;45.892;-123.962;2023-03-20T04:31:03;100152.79;;;10.50;83.31
51067;BME280;37112;45.892;-123.962;2023-03-20T04:33:53;100154.02;;;10.51;83.53
51067;BME280;37112;45.892;-123.962;2023-03-20T04:36:25;100153.66;;;10.51;83.40
51067;BME280;37112;45.892;-123.962;2023-03-20T04:38:40;100154.48;;;10.49;83.45
51067;BME280;37112;45.892;-123.962;2023-03-20T04:40:55;100152.55;;;10.49;83.61
51067;BME280;37112;45.892;-123.962;2023-03-20T04:43:08;100150.70;;;10.50;83.90
51067;BME280;37112;45.892;-123.962;2023-03-20T04:45:21;100148.98;;;10.52;84.11
51067;BME280;37112;45.892;-123.962;2023-03-20T04:47:34;100150.23;;;10.54;84.39
51067;BME280;37112;45.892;-123.962;2023-03-20T04:49:48;100151.20;;;10.55;84.49
51067;BME280;37112;45.892;-123.962;2023-03-20T04:52:02;100151.86;;;10.55;84.42
51067;BME280;37112;45.892;-123.962;2023-03-20T04:54:23;100152.10;;;10.57;84.55
51067;BME280;37112;45.892;-123.962;2023-03-20T04:56:35;100151.80;;;10.59;84.73
51067;BME280;37112;45.892;-123.962;2023-03-20T04:58:55;100157.91;;;10.60;84.76
51067;BME280;37112;45.892;-123.962;2023-03-20T05:01:08;100154.98;;;10.59;84.59
51067;BME280;37112;45.892;-123.962;2023-03-20T05:03:22;100154.86;;;10.58;84.28
51067;BME280;37112;45.892;-123.962;2023-03-20T05:05:37;100154.57;;;10.57;84.39
51067;BME280;37112;45.892;-123.962;2023-03-20T05:07:51;100151.79;;;10.56;84.19
51067;BME280;37112;45.892;-123.962;2023-03-20T05:10:13;100151.36;;;10.53;84.09
51067;BME280;37112;45.892;-123.962;2023-03-20T05:12:44;100150.24;;;10.51;84.14
51067;BME280;37112;45.892;-123.962;2023-03-20T05:15:17;100148.25;;;10.49;84.26
51067;BME280;37112;45.892;-123.962;2023-03-20T05:17:55;100147.48;;;10.48;84.51
51067;BME280;37112;45.892;-123.962;2023-03-20T05:20:22;100146.18;;;10.46;84.54
51067;BME280;37112;45.892;-123.962;2023-03-20T05:22:45;100148.55;;;10.46;84.71
51067;BME280;37112;45.892;-123.962;2023-03-20T05:25:30;100152.62;;;10.44;84.80
51067;BME280;37112;45.892;-123.962;2023-03-20T05:27:54;100153.80;;;10.42;84.90
51067;BME280;37112;45.892;-123.962;2023-03-20T05:30:15;100155.77;;;10.38;84.73
51067;BME280;37112;45.892;-123.962;2023-03-20T05:32:45;100155.42;;;10.35;84.89
51067;BME280;37112;45.892;-123.962;2023-03-20T05:35:11;100150.58;;;10.33;84.75
51067;BME280;37112;45.892;-123.962;2023-03-20T05:37:43;100152.65;;;10.31;84.88
51067;BME280;37112;45.892;-123.962;2023-03-20T05:42:51;100150.41;;;10.30;85.03
51067;BME280;37112;45.892;-123.962;2023-03-20T05:45:28;100149.39;;;10.30;85.14
51067;BME280;37112;45.892;-123.962;2023-03-20T05:47:52;100149.15;;;10.30;85.22
51067;BME280;37112;45.892;-123.962;2023-03-20T05:50:16;100144.21;;;10.30;85.09
51067;BME280;37112;45.892;-123.962;2023-03-20T05:52:53;100145.30;;;10.30;85.04
51067;BME280;37112;45.892;-123.962;2023-03-20T05:55:20;100146.88;;;10.28;84.86
51067;BME280;37112;45.892;-123.962;2023-03-20T05:57:54;100144.86;;;10.26;85.06
51067;BME280;37112;45.892;-123.962;2023-03-20T06:00:26;100145.48;;;10.25;84.92
51067;BME280;37112;45.892;-123.962;2023-03-20T06:03:07;100147.16;;;10.24;84.95
51067;BME280;37112;45.892;-123.962;2023-03-20T06:05:39;100146.29;;;10.24;85.23
51067;BME280;37112;45.892;-123.962;2023-03-20T06:07:52;100146.27;;;10.24;85.39
51067;BME280;37112;45.892;-123.962;2023-03-20T06:10:07;100148.39;;;10.24;85.40
51067;BME280;37112;45.892;-123.962;2023-03-20T06:12:20;100145.13;;;10.25;85.69
51067;BME280;37112;45.892;-123.962;2023-03-20T06:14:33;100148.76;;;10.26;85.81
51067;BME280;37112;45.892;-123.962;2023-03-20T06:16:48;100149.70;;;10.25;85.77
51067;BME280;37112;45.892;-123.962;2023-03-20T06:19:02;100149.55;;;10.25;85.60
51067;BME280;37112;45.892;-123.962;2023-03-20T06:21:16;100149.00;;;10.25;85.80
51067;BME280;37112;45.892;-123.962;2023-03-20T06:23:30;100148.11;;;10.25;85.72
51067;BME280;37112;45.892;-123.962;2023-03-20T06:25:44;100147.07;;;10.25;85.79
51067;BME280;37112;45.892;-123.962;2023-03-20T06:27:58;100150.58;;;10.26;85.91
51067;BME280;37112;45.892;-123.962;2023-03-20T06:30:14;100151.16;;;10.25;85.85
51067;BME280;37112;45.892;-123.962;2023-03-20T06:32:27;100152.88;;;10.23;85.86
51067;BME280;37112;45.892;-123.962;2023-03-20T06:34:43;100154.06;;;10.22;85.68
51067;BME280;37112;45.892;-123.962;2023-03-20T06:36:57;100156.33;;;10.20;85.65
51067;BME280;37112;45.892;-123.962;2023-03-20T06:39:10;100151.07;;;10.19;85.74
51067;BME280;37112;45.892;-123.962;2023-03-20T06:41:23;100156.53;;;10.17;85.84
51067;BME280;37112;45.892;-123.962;2023-03-20T06:43:47;100157.52;;;10.14;85.75
51067;BME280;37112;45.892;-123.962;2023-03-20T06:46:01;100158.46;;;10.10;85.71
51067;BME280;37112;45.892;-123.962;2023-03-20T06:48:14;100159.35;;;10.05;85.66
51067;BME280;37112;45.892;-123.962;2023-03-20T06:50:31;100155.01;;;9.99;85.70
51067;BME280;37112;45.892;-123.962;2023-03-20T06:52:45;100152.46;;;9.95;85.94
51067;BME280;37112;45.892;-123.962;2023-03-20T06:55:14;100153.73;;;9.90;86.21
51067;BME280;37112;45.892;-123.962;2023-03-20T06:57:29;100152.58;;;9.86;86.24
51067;BME280;37112;45.892;-123.962;2023-03-20T06:59:41;100154.61;;;9.83;86.42
51067;BME280;37112;45.892;-123.962;2023-03-20T07:01:55;100160.22;;;9.82;86.72
51067;BME280;37112;45.892;-123.962;2023-03-20T07:04:09;100158.81;;;9.79;87.21
51067;BME280;37112;45.892;-123.962;2023-03-20T07:06:29;100156.04;;;9.75;87.20
51067;BME280;37112;45.892;-123.962;2023-03-20T07:08:42;100162.27;;;9.73;87.36
51067;BME280;37112;45.892;-123.962;2023-03-20T07:10:56;100161.15;;;9.71;87.50
51067;BME280;37112;45.892;-123.962;2023-03-20T07:13:09;100159.72;;;9.69;87.52
51067;BME280;37112;45.892;-123.962;2023-03-20T07:15:24;100160.11;;;9.66;87.70
51067;BME280;37112;45.892;-123.962;2023-03-20T07:17:37;100157.65;;;9.63;88.09
51067;BME280;37112;45.892;-123.962;2023-03-20T07:19:50;100158.31;;;9.61;88.33
51067;BME280;37112;45.892;-123.962;2023-03-20T07:22:04;100157.66;;;9.61;88.38
51067;BME280;37112;45.892;-123.962;2023-03-20T07:24:21;100154.27;;;9.59;89.14
51067;BME280;37112;45.892;-123.962;2023-03-20T07:26:35;100157.44;;;9.57;89.05
51067;BME280;37112;45.892;-123.962;2023-03-20T07:28:48;100156.20;;;9.54;89.04
51067;BME280;37112;45.892;-123.962;2023-03-20T07:31:04;100154.90;;;9.53;89.27
51067;BME280;37112;45.892;-123.962;2023-03-20T07:33:18;100154.13;;;9.51;89.38
51067;BME280;37112;45.892;-123.962;2023-03-20T07:35:33;100156.92;;;9.49;89.62
51067;BME280;37112;45.892;-123.962;2023-03-20T07:37:50;100154.54;;;9.47;89.51
51067;BME280;37112;45.892;-123.962;2023-03-20T07:40:07;100157.43;;;9.46;89.46
51067;BME280;37112;45.892;-123.962;2023-03-20T07:42:37;100158.11;;;9.45;89.82
51067;BME280;37112;45.892;-123.962;2023-03-20T07:44:55;100164.17;;;9.44;89.76
51067;BME280;37112;45.892;-123.962;2023-03-20T07:47:08;100160.63;;;9.44;90.08
51067;BME280;37112;45.892;-123.962;2023-03-20T07:49:21;100166.01;;;9.43;89.96
51067;BME280;37112;45.892;-123.962;2023-03-20T07:51:35;100165.77;;;9.42;89.97
51067;BME280;37112;45.892;-123.962;2023-03-20T07:53:49;100166.77;;;9.40;90.14
51067;BME280;37112;45.892;-123.962;2023-03-20T07:56:03;100170.33;;;9.40;90.09
51067;BME280;37112;45.892;-123.962;2023-03-20T07:58:16;100172.63;;;9.40;90.23
51067;BME280;37112;45.892;-123.962;2023-03-20T08:00:29;100172.87;;;9.39;90.70
51067;BME280;37112;45.892;-123.962;2023-03-20T08:02:43;100178.27;;;9.38;90.92
51067;BME280;37112;45.892;-123.962;2023-03-20T08:04:57;100177.69;;;9.36;91.42
51067;BME280;37112;45.892;-123.962;2023-03-20T08:07:11;100179.55;;;9.35;91.19
51067;BME280;37112;45.892;-123.962;2023-03-20T08:09:24;100181.98;;;9.36;91.11
51067;BME280;37112;45.892;-123.962;2023-03-20T08:11:38;100183.29;;;9.35;91.24
51067;BME280;37112;45.892;-123.962;2023-03-20T08:13:51;100188.25;;;9.35;91.25
51067;BME280;37112;45.892;-123.962;2023-03-20T08:16:04;100186.05;;;9.36;91.68
51067;BME280;37112;45.892;-123.962;2023-03-20T08:18:17;100185.16;;;9.36;91.69
51067;BME280;37112;45.892;-123.962;2023-03-20T08:20:32;100190.80;;;9.36;91.52
51067;BME280;37112;45.892;-123.962;2023-03-20T08:22:46;100189.91;;;9.36;91.74
51067;BME280;37112;45.892;-123.962;2023-03-20T08:25:00;100189.94;;;9.36;91.95
51067;BME280;37112;45.892;-123.962;2023-03-20T08:27:12;100190.89;;;9.35;91.79
51067;BME280;37112;45.892;-123.962;2023-03-20T08:29:27;100190.54;;;9.35;91.89
51067;BME280;37112;45.892;-123.962;2023-03-20T08:31:41;100186.96;;;9.36;91.77
51067;BME280;37112;45.892;-123.962;2023-03-20T08:33:54;100189.44;;;9.36;91.91
51067;BME280;37112;45.892;-123.962;2023-03-20T08:36:09;100190.11;;;9.36;91.99
51067;BME280;37112;45.892;-123.962;2023-03-20T08:38:25;100189.60;;;9.36;92.09
51067;BME280;37112;45.892;-123.962;2023-03-20T08:40:38;100190.17;;;9.35;92.27
51067;BME280;37112;45.892;-123.962;2023-03-20T08:42:53;100186.84;;;9.35;92.22
51067;BME280;37112;45.892;-123.962;2023-03-20T08:45:07;100190.59;;;9.34;92.11
51067;BME280;37112;45.892;-123.962;2023-03-20T08:47:21;100191.68;;;9.34;92.37
51067;BME280;37112;45.892;-123.962;2023-03-20T08:49:34;100193.11;;;9.33;92.52
51067;BME280;37112;45.892;-123.962;2023-03-20T08:51:48;100193.73;;;9.32;92.65
51067;BME280;37112;45.892;-123.962;2023-03-20T08:54:01;100197.80;;;9.32;92.38
51067;BME280;37112;45.892;-123.962;2023-03-20T08:56:15;100201.01;;;9.32;92.53
51067;BME280;37112;45.892;-123.962;2023-03-20T08:58:28;100196.42;;;9.32;92.71
51067;BME280;37112;45.892;-123.962;2023-03-20T09:00:41;100197.70;;;9.31;92.57
51067;BME280;37112;45.892;-123.962;2023-03-20T09:02:54;100194.54;;;9.31;92.59
51067;BME280;37112;45.892;-123.962;2023-03-20T09:05:09;100190.12;;;9.31;92.41
51067;BME280;37112;45.892;-123.962;2023-03-20T09:07:22;100192.01;;;9.29;92.34
51067;BME280;37112;45.892;-123.962;2023-03-20T09:09:36;100192.10;;;9.28;92.27
51067;BME280;37112;45.892;-123.962;2023-03-20T09:11:49;100186.67;;;9.27;92.30
51067;BME280;37112;45.892;-123.962;2023-03-20T09:14:03;100187.45;;;9.26;92.09
51067;BME280;37112;45.892;-123.962;2023-03-20T09:16:16;100186.83;;;9.25;92.44
51067;BME280;37112;45.892;-123.962;2023-03-20T09:18:29;100189.57;;;9.21;92.21
51067;BME280;37112;45.892;-123.962;2023-03-20T09:20:42;100189.34;;;9.19;92.00
51067;BME280;37112;45.892;-123.962;2023-03-20T09:22:57;100189.41;;;9.18;92.10
51067;BME280;37112;45.892;-123.962;2023-03-20T09:25:11;100188.08;;;9.17;92.16
51067;BME280;37112;45.892;-123.962;2023-03-20T09:27:24;100188.36;;;9.15;92.15
51067;BME280;37112;45.892;-123.962;2023-03-20T09:29:37;100192.17;;;9.16;92.00
51067;BME280;37112;45.892;-123.962;2023-03-20T09:31:49;100192.84;;;9.17;92.08
51067;BME280;37112;45.892;-123.962;2023-03-20T09:34:04;100194.33;;;9.16;91.99
51067;BME280;37112;45.892;-123.962;2023-03-20T09:36:17;100194.81;;;9.17;91.96
51067;BME280;37112;45.892;-123.962;2023-03-20T09:38:31;100199.55;;;9.17;91.98
51067;BME280;37112;45.892;-123.962;2023-03-20T09:40:51;100196.34;;;9.18;91.86
51067;BME280;37112;45.892;-123.962;2023-03-20T09:43:09;100200.40;;;9.18;91.95
51067;BME280;37112;45.892;-123.962;2023-03-20T09:45:36;100200.92;;;9.18;91.97
51067;BME280;37112;45.892;-123.962;2023-03-20T09:47:57;100202.71;;;9.17;92.10
51067;BME280;37112;45.892;-123.962;2023-03-20T09:50:27;100202.59;;;9.17;91.92
51067;BME280;37112;45.892;-123.962;2023-03-20T09:52:58;100201.87;;;9.17;92.13
51067;BME280;37112;45.892;-123.962;2023-03-20T09:55:18;100205.51;;;9.16;92.00
51067;BME280;37112;45.892;-123.962;2023-03-20T09:57:36;100202.89;;;9.15;92.11
51067;BME280;37112;45.892;-123.962;2023-03-20T09:59:53;100202.89;;;9.15;92.15
51067;BME280;37112;45.892;-123.962;2023-03-20T10:02:10;100200.45;;;9.15;91.97
51067;BME280;37112;45.892;-123.962;2023-03-20T10:04:28;100198.70;;;9.15;92.00
51067;BME280;37112;45.892;-123.962;2023-03-20T10:06:41;100198.84;;;9.15;91.97
51067;BME280;37112;45.892;-123.962;2023-03-20T10:08:55;100195.65;;;9.15;91.89
51067;BME280;37112;45.892;-123.962;2023-03-20T10:14:13;100195.85;;;9.12;91.79
51067;BME280;37112;45.892;-123.962;2023-03-20T10:16:39;100190.11;;;9.11;91.67
51067;BME280;37112;45.892;-123.962;2023-03-20T10:18:59;100190.17;;;9.10;91.73
51067;BME280;37112;45.892;-123.962;2023-03-20T10:21:16;100189.05;;;9.08;91.53
51067;BME280;37112;45.892;-123.962;2023-03-20T10:23:38;100193.15;;;9.05;91.46
51067;BME280;37112;45.892;-123.962;2023-03-20T10:25:57;100190.94;;;9.02;91.37
51067;BME280;37112;45.892;-123.962;2023-03-20T10:28:15;100192.36;;;8.99;91.30
51067;BME280;37112;45.892;-123.962;2023-03-20T10:30:47;100196.42;;;8.97;91.20
51067;BME280;37112;45.892;-123.962;2023-03-20T10:33:11;100198.66;;;8.94;91.17
51067;BME280;37112;45.892;-123.962;2023-03-20T10:35:35;100197.36;;;8.93;91.15
51067;BME280;37112;45.892;-123.962;2023-03-20T10:38:00;100198.21;;;8.90;91.11
51067;BME280;37112;45.892;-123.962;2023-03-20T10:40:28;100199.64;;;8.88;91.07
51067;BME280;37112;45.892;-123.962;2023-03-20T10:42:48;100201.16;;;8.86;91.05
51067;BME280;37112;45.892;-123.962;2023-03-20T10:45:04;100202.65;;;8.86;91.22
51067;BME280;37112;45.892;-123.962;2023-03-20T10:47:19;100205.86;;;8.85;91.31
51067;BME280;37112;45.892;-123.962;2023-03-20T10:49:38;100207.55;;;8.86;91.25
51067;BME280;37112;45.892;-123.962;2023-03-20T10:51:54;100206.80;;;8.87;91.44
51067;BME280;37112;45.892;-123.962;2023-03-20T10:54:21;100207.70;;;8.87;91.34
51067;BME280;37112;45.892;-123.962;2023-03-20T10:56:39;100206.58;;;8.88;91.71
51067;BME280;37112;45.892;-123.962;2023-03-20T10:58:58;100211.99;;;8.89;91.81
51067;BME280;37112;45.892;-123.962;2023-03-20T11:01:17;100211.20;;;8.90;91.83
51067;BME280;37112;45.892;-123.962;2023-03-20T11:03:31;100212.75;;;8.90;91.84
51067;BME280;37112;45.892;-123.962;2023-03-20T11:05:51;100213.60;;;8.91;91.89
51067;BME280;37112;45.892;-123.962;2023-03-20T11:08:19;100214.15;;;8.91;92.35
51067;BME280;37112;45.892;-123.962;2023-03-20T11:10:35;100217.20;;;8.90;92.52
51067;BME280;37112;45.892;-123.962;2023-03-20T11:12:50;100218.15;;;8.89;92.21
51067;BME280;37112;45.892;-123.962;2023-03-20T11:15:13;100216.13;;;8.88;92.43
51067;BME280;37112;45.892;-123.962;2023-03-20T11:17:29;100217.44;;;8.87;92.46
51067;BME280;37112;45.892;-123.962;2023-03-20T11:19:44;100222.48;;;8.85;92.66
51067;BME280;37112;45.892;-123.962;2023-03-20T11:21:59;100221.05;;;8.83;92.69
51067;BME280;37112;45.892;-123.962;2023-03-20T11:24:26;100227.20;;;8.82;92.58
51067;BME280;37112;45.892;-123.962;2023-03-20T11:26:45;100226.59;;;8.80;93.03
51067;BME280;37112;45.892;-123.962;2023-03-20T11:29:00;100226.27;;;8.77;93.15
51067;BME280;37112;45.892;-123.962;2023-03-20T11:31:23;100226.73;;;8.75;93.27
51067;BME280;37112;45.892;-123.962;2023-03-20T11:33:41;100226.00;;;8.73;93.36
51067;BME280;37112;45.892;-123.962;2023-03-20T11:35:57;100227.68;;;8.72;93.27
51067;BME280;37112;45.892;-123.962;2023-03-20T11:38:13;100230.02;;;8.71;94.29
51067;BME280;37112;45.892;-123.962;2023-03-20T11:40:32;100235.21;;;8.70;94.47
51067;BME280;37112;45.892;-123.962;2023-03-20T11:42:56;100241.05;;;8.68;94.98
51067;BME280;37112;45.892;-123.962;2023-03-20T11:45:19;100240.34;;;8.65;94.41
51067;BME280;37112;45.892;-123.962;2023-03-20T11:47:33;100246.41;;;8.64;94.46
51067;BME280;37112;45.892;-123.962;2023-03-20T11:49:59;100248.67;;;8.62;94.43
51067;BME280;37112;45.892;-123.962;2023-03-20T11:52:19;100251.08;;;8.60;94.31